sensor_id;sensor_type;location;lat;lon;timestamp;temperature;humidity
48328;DHT22;34136;51.022;7.082;2022-11-25T00:00:03;8.20;8.50
48328;DHT22;34136;51.022;7.082;2022-11-25T00:02:57;8.20;8.30
48328;DHT22;34136;51.022;7.082;2022-11-25T00:05:43;8.10;9.20
48328;DHT22;34136;51.022;7.082;2022-11-25T00:08:29;8.20;8.60
48328;DHT22;34136;51.022;7.082;2022-11-25T00:11:16;8.20;8.50
48328;DHT22;34136;51.022;7.082;2022-11-25T00:14:03;8.20;8.50
48328;DHT22;34136;51.022;7.082;2022-11-25T00:16:49;8.20;8.40
48328;DHT22;34136;51.022;7.082;2022-11-25T00:19:35;8.10;8.70
48328;DHT22;34136;51.022;7.082;2022-11-25T00:22:40;8.10;8.70
48328;DHT22;34136;51.022;7.082;2022-11-25T00:25:26;8.10;9.20
48328;DHT22;34136;51.022;7.082;2022-11-25T00:28:12;8.00;9.40
48328;DHT22;34136;51.022;7.082;2022-11-25T00:31:10;8.00;9.60
48328;DHT22;34136;51.022;7.082;2022-11-25T00:33:57;8.10;9.70
48328;DHT22;34136;51.022;7.082;2022-11-25T00:36:43;8.10;9.70
48328;DHT22;34136;51.022;7.082;2022-11-25T00:39:29;8.10;9.80
48328;DHT22;34136;51.022;7.082;2022-11-25T00:42:16;8.10;9.80
48328;DHT22;34136;51.022;7.082;2022-11-25T00:45:02;8.10;10.00
48328;DHT22;34136;51.022;7.082;2022-11-25T00:47:48;8.00;10.30
48328;DHT22;34136;51.022;7.082;2022-11-25T00:50:37;8.00;10.50
48328;DHT22;34136;51.022;7.082;2022-11-25T00:53:23;8.00;10.60
48328;DHT22;34136;51.022;7.082;2022-11-25T00:56:09;8.00;10.80
48328;DHT22;34136;51.022;7.082;2022-11-25T00:58:55;8.00;10.80
48328;DHT22;34136;51.022;7.082;2022-11-25T01:02:00;8.10;11.00
48328;DHT22;34136;51.022;7.082;2022-11-25T01:04:46;8.00;11.10
48328;DHT22;34136;51.022;7.082;2022-11-25T01:07:34;8.10;11.30
48328;DHT22;34136;51.022;7.082;2022-11-25T01:10:39;8.10;11.20
48328;DHT22;34136;51.022;7.082;2022-11-25T01:13:44;8.00;11.20
48328;DHT22;34136;51.022;7.082;2022-11-25T01:16:31;8.10;11.40
48328;DHT22;34136;51.022;7.082;2022-11-25T01:19:18;8.10;11.60
48328;DHT22;34136;51.022;7.082;2022-11-25T01:22:06;8.10;12.20
48328;DHT22;34136;51.022;7.082;2022-11-25T01:24:53;8.20;11.40
48328;DHT22;34136;51.022;7.082;2022-11-25T01:27:58;8.10;11.40
48328;DHT22;34136;51.022;7.082;2022-11-25T01:30:45;8.00;11.90
48328;DHT22;34136;51.022;7.082;2022-11-25T01:33:33;8.00;12.50
48328;DHT22;34136;51.022;7.082;2022-11-25T01:36:19;8.00;12.10
48328;DHT22;34136;51.022;7.082;2022-11-25T01:39:24;8.00;12.10
48328;DHT22;34136;51.022;7.082;2022-11-25T01:42:30;8.00;12.00
48328;DHT22;34136;51.022;7.082;2022-11-25T01:45:36;8.10;12.30
48328;DHT22;34136;51.022;7.082;2022-11-25T01:48:37;8.00;12.20
48328;DHT22;34136;51.022;7.082;2022-11-25T01:54:35;8.10;12.40
48328;DHT22;34136;51.022;7.082;2022-11-25T01:57:32;8.20;12.30
48328;DHT22;34136;51.022;7.082;2022-11-25T02:00:20;8.20;12.10
48328;DHT22;34136;51.022;7.082;2022-11-25T02:03:07;8.20;12.30
48328;DHT22;34136;51.022;7.082;2022-11-25T02:05:59;8.30;12.30
48328;DHT22;34136;51.022;7.082;2022-11-25T02:08:52;8.30;12.50
48328;DHT22;34136;51.022;7.082;2022-11-25T02:11:41;8.30;12.60
48328;DHT22;34136;51.022;7.082;2022-11-25T02:14:29;8.40;12.50
48328;DHT22;34136;51.022;7.082;2022-11-25T02:17:16;8.40;12.50
48328;DHT22;34136;51.022;7.082;2022-11-25T02:20:21;8.40;12.70
48328;DHT22;34136;51.022;7.082;2022-11-25T02:23:33;8.50;12.80
48328;DHT22;34136;51.022;7.082;2022-11-25T02:26:21;8.60;12.00
48328;DHT22;34136;51.022;7.082;2022-11-25T02:29:27;8.60;12.10
48328;DHT22;34136;51.022;7.082;2022-11-25T02:32:13;8.60;11.80
48328;DHT22;34136;51.022;7.082;2022-11-25T02:35:00;8.60;11.90
48328;DHT22;34136;51.022;7.082;2022-11-25T02:37:46;8.70;12.10
48328;DHT22;34136;51.022;7.082;2022-11-25T02:41:21;8.80;11.60
48328;DHT22;34136;51.022;7.082;2022-11-25T02:43:42;8.80;11.30
48328;DHT22;34136;51.022;7.082;2022-11-25T02:46:28;8.80;11.00
48328;DHT22;34136;51.022;7.082;2022-11-25T02:49:15;8.90;10.80
48328;DHT22;34136;51.022;7.082;2022-11-25T02:52:02;8.90;10.70
48328;DHT22;34136;51.022;7.082;2022-11-25T02:54:48;8.90;10.50
48328;DHT22;34136;51.022;7.082;2022-11-25T02:57:35;8.90;10.30
48328;DHT22;34136;51.022;7.082;2022-11-25T03:00:40;9.00;10.10
48328;DHT22;34136;51.022;7.082;2022-11-25T03:03:44;8.90;10.00
48328;DHT22;34136;51.022;7.082;2022-11-25T03:06:31;9.00;10.20
48328;DHT22;34136;51.022;7.082;2022-11-25T03:09:17;9.00;10.20
48328;DHT22;34136;51.022;7.082;2022-11-25T03:12:04;9.00;10.00
48328;DHT22;34136;51.022;7.082;2022-11-25T03:14:50;9.00;9.80
48328;DHT22;34136;51.022;7.082;2022-11-25T03:17:37;9.00;9.50
48328;DHT22;34136;51.022;7.082;2022-11-25T03:20:41;9.00;9.80
48328;DHT22;34136;51.022;7.082;2022-11-25T03:23:28;9.00;10.50
48328;DHT22;34136;51.022;7.082;2022-11-25T03:26:16;8.90;10.10
48328;DHT22;34136;51.022;7.082;2022-11-25T03:29:21;8.90;10.10
48328;DHT22;34136;51.022;7.082;2022-11-25T03:32:25;8.90;10.30
48328;DHT22;34136;51.022;7.082;2022-11-25T03:35:12;8.90;10.20
48328;DHT22;34136;51.022;7.082;2022-11-25T03:37:59;8.90;10.10
48328;DHT22;34136;51.022;7.082;2022-11-25T03:41:03;8.90;10.00
48328;DHT22;34136;51.022;7.082;2022-11-25T03:43:51;9.00;9.80
48328;DHT22;34136;51.022;7.082;2022-11-25T03:46:37;9.00;9.60
48328;DHT22;34136;51.022;7.082;2022-11-25T03:49:26;9.00;9.50
48328;DHT22;34136;51.022;7.082;2022-11-25T03:52:31;9.10;9.40
48328;DHT22;34136;51.022;7.082;2022-11-25T03:55:18;9.10;9.50
48328;DHT22;34136;51.022;7.082;2022-11-25T03:58:05;9.10;9.70
48328;DHT22;34136;51.022;7.082;2022-11-25T04:01:10;9.10;9.70
48328;DHT22;34136;51.022;7.082;2022-11-25T04:03:56;9.00;9.80
48328;DHT22;34136;51.022;7.082;2022-11-25T04:06:43;9.10;10.10
48328;DHT22;34136;51.022;7.082;2022-11-25T04:09:29;9.10;10.50
48328;DHT22;34136;51.022;7.082;2022-11-25T04:12:19;9.10;9.90
48328;DHT22;34136;51.022;7.082;2022-11-25T04:15:17;9.10;10.60
48328;DHT22;34136;51.022;7.082;2022-11-25T04:18:08;9.10;9.90
48328;DHT22;34136;51.022;7.082;2022-11-25T04:20:54;9.10;9.90
48328;DHT22;34136;51.022;7.082;2022-11-25T04:23:41;9.10;9.70
48328;DHT22;34136;51.022;7.082;2022-11-25T04:26:30;9.10;9.90
48328;DHT22;34136;51.022;7.082;2022-11-25T04:29:17;9.20;10.10
48328;DHT22;34136;51.022;7.082;2022-11-25T04:32:03;9.20;10.30
48328;DHT22;34136;51.022;7.082;2022-11-25T04:35:08;9.10;10.50
48328;DHT22;34136;51.022;7.082;2022-11-25T04:37:55;9.10;10.50
48328;DHT22;34136;51.022;7.082;2022-11-25T04:40:43;9.10;10.60
48328;DHT22;34136;51.022;7.082;2022-11-25T04:43:36;9.10;11.40
48328;DHT22;34136;51.022;7.082;2022-11-25T04:46:35;9.10;10.80
48328;DHT22;34136;51.022;7.082;2022-11-25T04:49:41;9.10;10.80
48328;DHT22;34136;51.022;7.082;2022-11-25T04:52:27;9.10;10.90
48328;DHT22;34136;51.022;7.082;2022-11-25T04:55:14;9.10;10.50
48328;DHT22;34136;51.022;7.082;2022-11-25T04:58:00;9.10;10.90
48328;DHT22;34136;51.022;7.082;2022-11-25T05:00:47;9.10;11.20
48328;DHT22;34136;51.022;7.082;2022-11-25T05:03:34;9.10;11.70
48328;DHT22;34136;51.022;7.082;2022-11-25T05:06:21;9.10;12.50
48328;DHT22;34136;51.022;7.082;2022-11-25T05:09:25;9.00;12.50
48328;DHT22;34136;51.022;7.082;2022-11-25T05:12:30;9.00;13.40
48328;DHT22;34136;51.022;7.082;2022-11-25T05:15:18;9.00;13.90
48328;DHT22;34136;51.022;7.082;2022-11-25T05:18:06;9.00;14.00
48328;DHT22;34136;51.022;7.082;2022-11-25T05:21:04;9.00;14.10
48328;DHT22;34136;51.022;7.082;2022-11-25T05:23:54;8.90;14.50
48328;DHT22;34136;51.022;7.082;2022-11-25T05:26:41;8.90;14.80
48328;DHT22;34136;51.022;7.082;2022-11-25T05:29:28;8.90;15.20
48328;DHT22;34136;51.022;7.082;2022-11-25T05:32:15;8.90;15.20
48328;DHT22;34136;51.022;7.082;2022-11-25T05:35:20;8.80;15.30
48328;DHT22;34136;51.022;7.082;2022-11-25T05:38:07;8.80;15.60
48328;DHT22;34136;51.022;7.082;2022-11-25T05:41:01;8.80;15.70
48328;DHT22;34136;51.022;7.082;2022-11-25T05:43:48;8.80;16.30
48328;DHT22;34136;51.022;7.082;2022-11-25T05:46:35;8.70;16.70
48328;DHT22;34136;51.022;7.082;2022-11-25T05:49:22;8.70;17.00
48328;DHT22;34136;51.022;7.082;2022-11-25T05:52:09;8.70;16.90
48328;DHT22;34136;51.022;7.082;2022-11-25T05:55:05;8.70;16.90
48328;DHT22;34136;51.022;7.082;2022-11-25T05:57:52;8.70;17.00
48328;DHT22;34136;51.022;7.082;2022-11-25T06:00:39;8.70;17.20
48328;DHT22;34136;51.022;7.082;2022-11-25T06:03:29;8.70;17.40
48328;DHT22;34136;51.022;7.082;2022-11-25T06:06:16;8.60;18.10
48328;DHT22;34136;51.022;7.082;2022-11-25T06:09:03;8.60;18.00
48328;DHT22;34136;51.022;7.082;2022-11-25T06:11:49;8.60;18.00
48328;DHT22;34136;51.022;7.082;2022-11-25T06:14:37;8.60;17.90
48328;DHT22;34136;51.022;7.082;2022-11-25T06:17:23;8.60;18.20
48328;DHT22;34136;51.022;7.082;2022-11-25T06:20:17;8.60;18.20
48328;DHT22;34136;51.022;7.082;2022-11-25T06:23:05;8.60;17.90
48328;DHT22;34136;51.022;7.082;2022-11-25T06:26:01;8.60;18.20
48328;DHT22;34136;51.022;7.082;2022-11-25T06:28:52;8.60;18.00
48328;DHT22;34136;51.022;7.082;2022-11-25T06:31:38;8.60;18.20
48328;DHT22;34136;51.022;7.082;2022-11-25T06:34:53;8.50;18.20
48328;DHT22;34136;51.022;7.082;2022-11-25T06:38:09;8.60;18.40
48328;DHT22;34136;51.022;7.082;2022-11-25T06:40:59;8.50;18.60
48328;DHT22;34136;51.022;7.082;2022-11-25T06:43:46;8.50;18.70
48328;DHT22;34136;51.022;7.082;2022-11-25T06:46:32;8.50;19.20
48328;DHT22;34136;51.022;7.082;2022-11-25T06:49:18;8.40;19.20
48328;DHT22;34136;51.022;7.082;2022-11-25T06:52:04;8.50;19.30
48328;DHT22;34136;51.022;7.082;2022-11-25T06:54:50;8.50;19.30
48328;DHT22;34136;51.022;7.082;2022-11-25T06:57:37;8.50;19.30
48328;DHT22;34136;51.022;7.082;2022-11-25T07:00:23;8.50;19.20
48328;DHT22;34136;51.022;7.082;2022-11-25T07:03:09;8.50;18.90
48328;DHT22;34136;51.022;7.082;2022-11-25T07:05:57;8.60;18.80
48328;DHT22;34136;51.022;7.082;2022-11-25T07:08:44;8.60;18.80
48328;DHT22;34136;51.022;7.082;2022-11-25T07:11:33;8.60;18.60
48328;DHT22;34136;51.022;7.082;2022-11-25T07:14:19;8.60;18.50
48328;DHT22;34136;51.022;7.082;2022-11-25T07:17:05;8.50;18.60
48328;DHT22;34136;51.022;7.082;2022-11-25T07:19:51;8.50;19.00
48328;DHT22;34136;51.022;7.082;2022-11-25T07:22:37;8.60;19.10
48328;DHT22;34136;51.022;7.082;2022-11-25T07:25:24;8.60;18.80
48328;DHT22;34136;51.022;7.082;2022-11-25T07:28:10;8.60;18.70
48328;DHT22;34136;51.022;7.082;2022-11-25T07:31:03;8.60;18.60
48328;DHT22;34136;51.022;7.082;2022-11-25T07:33:54;8.50;18.70
48328;DHT22;34136;51.022;7.082;2022-11-25T07:36:41;8.50;19.00
48328;DHT22;34136;51.022;7.082;2022-11-25T07:39:27;8.50;18.80
48328;DHT22;34136;51.022;7.082;2022-11-25T07:42:15;8.50;18.80
48328;DHT22;34136;51.022;7.082;2022-11-25T07:45:01;8.50;18.80
48328;DHT22;34136;51.022;7.082;2022-11-25T07:48:09;8.50;18.50
48328;DHT22;34136;51.022;7.082;2022-11-25T07:50:55;8.50;18.50
48328;DHT22;34136;51.022;7.082;2022-11-25T07:53:42;8.40;18.30
48328;DHT22;34136;51.022;7.082;2022-11-25T07:56:36;8.50;18.50
48328;DHT22;34136;51.022;7.082;2022-11-25T07:59:31;8.50;18.50
48328;DHT22;34136;51.022;7.082;2022-11-25T08:02:20;8.50;18.50
48328;DHT22;34136;51.022;7.082;2022-11-25T08:05:24;8.50;18.60
48328;DHT22;34136;51.022;7.082;2022-11-25T08:08:11;8.50;18.60
48328;DHT22;34136;51.022;7.082;2022-11-25T08:10:57;8.60;18.80
48328;DHT22;34136;51.022;7.082;2022-11-25T08:14:02;8.60;18.40
48328;DHT22;34136;51.022;7.082;2022-11-25T08:16:48;8.60;18.60
48328;DHT22;34136;51.022;7.082;2022-11-25T08:19:34;8.60;18.50
48328;DHT22;34136;51.022;7.082;2022-11-25T08:22:20;8.60;18.40
48328;DHT22;34136;51.022;7.082;2022-11-25T08:25:07;8.60;18.50
48328;DHT22;34136;51.022;7.082;2022-11-25T08:27:53;8.60;18.70
48328;DHT22;34136;51.022;7.082;2022-11-25T08:30:39;8.70;18.60
48328;DHT22;34136;51.022;7.082;2022-11-25T08:33:25;8.80;18.80
48328;DHT22;34136;51.022;7.082;2022-11-25T08:36:33;8.80;19.10
48328;DHT22;34136;51.022;7.082;2022-11-25T08:39:21;8.90;18.60
48328;DHT22;34136;51.022;7.082;2022-11-25T08:42:07;8.90;18.50
48328;DHT22;34136;51.022;7.082;2022-11-25T08:44:54;9.00;18.50
48328;DHT22;34136;51.022;7.082;2022-11-25T08:47:41;9.00;18.40
48328;DHT22;34136;51.022;7.082;2022-11-25T08:50:27;9.10;18.60
48328;DHT22;34136;51.022;7.082;2022-11-25T08:53:13;9.10;18.60
48328;DHT22;34136;51.022;7.082;2022-11-25T08:56:00;9.20;18.20
48328;DHT22;34136;51.022;7.082;2022-11-25T08:58:47;9.30;18.50
48328;DHT22;34136;51.022;7.082;2022-11-25T09:01:33;9.40;18.50
48328;DHT22;34136;51.022;7.082;2022-11-25T09:04:19;9.50;18.30
48328;DHT22;34136;51.022;7.082;2022-11-25T09:07:24;9.50;18.30
48328;DHT22;34136;51.022;7.082;2022-11-25T09:10:13;9.50;17.80
48328;DHT22;34136;51.022;7.082;2022-11-25T09:13:00;9.60;17.60
48328;DHT22;34136;51.022;7.082;2022-11-25T09:15:47;9.60;17.40
48328;DHT22;34136;51.022;7.082;2022-11-25T09:18:33;9.60;17.50
48328;DHT22;34136;51.022;7.082;2022-11-25T09:21:19;9.60;17.00
48328;DHT22;34136;51.022;7.082;2022-11-25T09:24:06;9.60;16.60
48328;DHT22;34136;51.022;7.082;2022-11-25T09:26:52;9.60;17.20
48328;DHT22;34136;51.022;7.082;2022-11-25T09:29:38;9.70;17.00
48328;DHT22;34136;51.022;7.082;2022-11-25T09:32:25;9.80;16.80
48328;DHT22;34136;51.022;7.082;2022-11-25T09:35:11;9.90;16.40
48328;DHT22;34136;51.022;7.082;2022-11-25T09:37:57;9.90;15.70
48328;DHT22;34136;51.022;7.082;2022-11-25T09:41:37;10.00;15.80
48328;DHT22;34136;51.022;7.082;2022-11-25T09:51:29;10.20;15.20
48328;DHT22;34136;51.022;7.082;2022-11-25T09:54:39;10.20;14.30
48328;DHT22;34136;51.022;7.082;2022-11-25T09:58:09;10.30;14.80
48328;DHT22;34136;51.022;7.082;2022-11-25T10:00:59;10.50;14.00
48328;DHT22;34136;51.022;7.082;2022-11-25T10:04:14;10.60;13.70
48328;DHT22;34136;51.022;7.082;2022-11-25T10:07:03;10.60;12.80
48328;DHT22;34136;51.022;7.082;2022-11-25T10:09:55;10.80;12.10
48328;DHT22;34136;51.022;7.082;2022-11-25T10:12:42;10.70;11.50
48328;DHT22;34136;51.022;7.082;2022-11-25T10:15:34;10.80;11.40
48328;DHT22;34136;51.022;7.082;2022-11-25T10:18:38;10.80;10.80
48328;DHT22;34136;51.022;7.082;2022-11-25T10:21:25;10.80;11.50
48328;DHT22;34136;51.022;7.082;2022-11-25T10:24:13;10.70;11.40
48328;DHT22;34136;51.022;7.082;2022-11-25T10:27:06;10.80;11.80
48328;DHT22;34136;51.022;7.082;2022-11-25T10:36:21;11.00;10.80
48328;DHT22;34136;51.022;7.082;2022-11-25T10:39:23;11.00;10.10
48328;DHT22;34136;51.022;7.082;2022-11-25T10:42:18;11.10;9.50
48328;DHT22;34136;51.022;7.082;2022-11-25T10:45:06;11.10;9.60
48328;DHT22;34136;51.022;7.082;2022-11-25T10:48:09;11.10;9.60
48328;DHT22;34136;51.022;7.082;2022-11-25T10:51:14;11.10;9.30
48328;DHT22;34136;51.022;7.082;2022-11-25T10:54:20;11.20;9.20
48328;DHT22;34136;51.022;7.082;2022-11-25T10:57:18;11.20;9.10
48328;DHT22;34136;51.022;7.082;2022-11-25T11:00:06;11.30;10.30
48328;DHT22;34136;51.022;7.082;2022-11-25T11:02:54;11.40;10.00
48328;DHT22;34136;51.022;7.082;2022-11-25T11:05:49;11.50;10.50
48328;DHT22;34136;51.022;7.082;2022-11-25T11:08:38;11.60;9.40
48328;DHT22;34136;51.022;7.082;2022-11-25T11:11:25;11.50;7.10
48328;DHT22;34136;51.022;7.082;2022-11-25T11:14:12;11.50;7.40
48328;DHT22;34136;51.022;7.082;2022-11-25T11:17:01;11.60;8.20
48328;DHT22;34136;51.022;7.082;2022-11-25T13:09:24;12.00;1.00
48328;DHT22;34136;51.022;7.082;2022-11-25T13:15:26;12.00;1.00
48328;DHT22;34136;51.022;7.082;2022-11-25T13:18:17;12.10;1.00
48328;DHT22;34136;51.022;7.082;2022-11-25T13:21:07;12.10;1.00
48328;DHT22;34136;51.022;7.082;2022-11-25T13:23:57;12.20;1.00
48328;DHT22;34136;51.022;7.082;2022-11-25T13:26:47;12.30;1.00
48328;DHT22;34136;51.022;7.082;2022-11-25T13:32:35;12.10;1.00
48328;DHT22;34136;51.022;7.082;2022-11-25T13:46:53;12.10;1.00
48328;DHT22;34136;51.022;7.082;2022-11-25T13:49:54;12.10;1.00
48328;DHT22;34136;51.022;7.082;2022-11-25T13:52:43;12.10;1.00
48328;DHT22;34136;51.022;7.082;2022-11-25T13:59:35;12.20;1.00
48328;DHT22;34136;51.022;7.082;2022-11-25T14:02:31;12.20;1.00
48328;DHT22;34136;51.022;7.082;2022-11-25T14:12:31;12.20;1.00
48328;DHT22;34136;51.022;7.082;2022-11-25T14:18:35;12.30;1.00
48328;DHT22;34136;51.022;7.082;2022-11-25T14:28:09;12.20;1.00
48328;DHT22;34136;51.022;7.082;2022-11-25T14:31:04;12.20;1.00
48328;DHT22;34136;51.022;7.082;2022-11-25T14:42:58;12.10;1.00
48328;DHT22;34136;51.022;7.082;2022-11-25T14:45:47;12.10;1.00
48328;DHT22;34136;51.022;7.082;2022-11-25T14:48:54;12.00;1.00
48328;DHT22;34136;51.022;7.082;2022-11-25T14:51:42;12.00;1.00
48328;DHT22;34136;51.022;7.082;2022-11-25T14:54:31;12.00;1.00
48328;DHT22;34136;51.022;7.082;2022-11-25T14:57:27;11.90;1.00
48328;DHT22;34136;51.022;7.082;2022-11-25T15:00:16;11.90;1.00
48328;DHT22;34136;51.022;7.082;2022-11-25T15:03:03;11.90;1.00
48328;DHT22;34136;51.022;7.082;2022-11-25T15:06:19;12.00;1.00
48328;DHT22;34136;51.022;7.082;2022-11-25T15:09:27;11.90;1.00
48328;DHT22;34136;51.022;7.082;2022-11-25T15:12:18;11.90;1.00
48328;DHT22;34136;51.022;7.082;2022-11-25T15:15:33;11.90;1.00
48328;DHT22;34136;51.022;7.082;2022-11-25T15:18:49;12.00;1.00
48328;DHT22;34136;51.022;7.082;2022-11-25T15:21:58;12.00;1.00
48328;DHT22;34136;51.022;7.082;2022-11-25T15:24:45;12.10;1.00
48328;DHT22;34136;51.022;7.082;2022-11-25T15:27:32;12.10;1.00
48328;DHT22;34136;51.022;7.082;2022-11-25T15:30:26;12.00;1.00
48328;DHT22;34136;51.022;7.082;2022-11-25T15:33:13;12.10;1.00
48328;DHT22;34136;51.022;7.082;2022-11-25T15:36:03;12.00;1.00
48328;DHT22;34136;51.022;7.082;2022-11-25T15:38:54;12.00;1.00
48328;DHT22;34136;51.022;7.082;2022-11-25T15:41:43;12.00;1.00
48328;DHT22;34136;51.022;7.082;2022-11-25T15:44:33;12.00;1.00
48328;DHT22;34136;51.022;7.082;2022-11-25T15:47:39;11.90;1.00
48328;DHT22;34136;51.022;7.082;2022-11-25T15:50:31;11.80;1.00
48328;DHT22;34136;51.022;7.082;2022-11-25T15:53:25;11.70;1.00
48328;DHT22;34136;51.022;7.082;2022-11-25T15:56:16;11.70;1.00
48328;DHT22;34136;51.022;7.082;2022-11-25T15:59:44;11.70;1.00
48328;DHT22;34136;51.022;7.082;2022-11-25T16:02:38;11.60;1.00
48328;DHT22;34136;51.022;7.082;2022-11-25T16:05:35;11.50;1.00
48328;DHT22;34136;51.022;7.082;2022-11-25T16:08:29;11.50;1.00
48328;DHT22;34136;51.022;7.082;2022-11-25T16:11:16;11.40;1.00
48328;DHT22;34136;51.022;7.082;2022-11-25T16:14:27;11.50;1.00
48328;DHT22;34136;51.022;7.082;2022-11-25T16:17:17;11.50;1.00
48328;DHT22;34136;51.022;7.082;2022-11-25T16:20:04;11.40;1.00
48328;DHT22;34136;51.022;7.082;2022-11-25T16:23:06;11.40;1.30
48328;DHT22;34136;51.022;7.082;2022-11-25T16:32:29;11.30;2.10
48328;DHT22;34136;51.022;7.082;2022-11-25T16:35:17;11.30;1.80
48328;DHT22;34136;51.022;7.082;2022-11-25T16:38:05;11.30;1.50
48328;DHT22;34136;51.022;7.082;2022-11-25T16:41:26;11.30;1.90
48328;DHT22;34136;51.022;7.082;2022-11-25T16:44:32;11.30;1.80
48328;DHT22;34136;51.022;7.082;2022-11-25T16:47:20;11.30;1.80
48328;DHT22;34136;51.022;7.082;2022-11-25T16:50:14;11.20;1.50
48328;DHT22;34136;51.022;7.082;2022-11-25T16:53:02;11.20;1.90
48328;DHT22;34136;51.022;7.082;2022-11-25T16:55:48;11.20;2.10
48328;DHT22;34136;51.022;7.082;2022-11-25T16:58:42;11.20;2.30
48328;DHT22;34136;51.022;7.082;2022-11-25T17:01:48;11.10;1.90
48328;DHT22;34136;51.022;7.082;2022-11-25T17:04:34;11.10;2.20
48328;DHT22;34136;51.022;7.082;2022-11-25T17:07:20;11.10;2.70
48328;DHT22;34136;51.022;7.082;2022-11-25T17:10:07;11.10;1.70
48328;DHT22;34136;51.022;7.082;2022-11-25T17:12:54;11.10;1.90
48328;DHT22;34136;51.022;7.082;2022-11-25T17:15:41;11.10;1.80
48328;DHT22;34136;51.022;7.082;2022-11-25T17:18:28;11.10;1.70
48328;DHT22;34136;51.022;7.082;2022-11-25T17:21:25;11.00;1.80
48328;DHT22;34136;51.022;7.082;2022-11-25T17:24:21;11.10;2.40
48328;DHT22;34136;51.022;7.082;2022-11-25T17:27:09;11.10;2.50
48328;DHT22;34136;51.022;7.082;2022-11-25T17:30:03;11.00;2.30
48328;DHT22;34136;51.022;7.082;2022-11-25T17:33:02;11.00;2.30
48328;DHT22;34136;51.022;7.082;2022-11-25T17:35:49;11.00;2.10
48328;DHT22;34136;51.022;7.082;2022-11-25T17:38:35;11.00;2.40
48328;DHT22;34136;51.022;7.082;2022-11-25T17:41:23;11.00;2.30
48328;DHT22;34136;51.022;7.082;2022-11-25T17:44:23;11.00;2.30
48328;DHT22;34136;51.022;7.082;2022-11-25T17:55:37;11.00;1.80
48328;DHT22;34136;51.022;7.082;2022-11-25T17:58:24;11.00;1.90
48328;DHT22;34136;51.022;7.082;2022-11-25T18:01:10;11.00;1.70
48328;DHT22;34136;51.022;7.082;2022-11-25T18:03:57;10.90;1.80
48328;DHT22;34136;51.022;7.082;2022-11-25T18:06:43;10.80;2.00
48328;DHT22;34136;51.022;7.082;2022-11-25T18:09:29;10.80;2.00
48328;DHT22;34136;51.022;7.082;2022-11-25T18:12:27;10.90;2.00
48328;DHT22;34136;51.022;7.082;2022-11-25T18:15:16;10.80;2.70
48328;DHT22;34136;51.022;7.082;2022-11-25T18:18:18;10.80;3.10
48328;DHT22;34136;51.022;7.082;2022-11-25T18:21:05;10.80;2.70
48328;DHT22;34136;51.022;7.082;2022-11-25T18:23:52;10.80;2.80
48328;DHT22;34136;51.022;7.082;2022-11-25T18:26:47;10.80;2.90
48328;DHT22;34136;51.022;7.082;2022-11-25T18:29:34;10.80;2.40
48328;DHT22;34136;51.022;7.082;2022-11-25T18:32:21;10.80;2.60
48328;DHT22;34136;51.022;7.082;2022-11-25T18:35:26;10.80;3.40
48328;DHT22;34136;51.022;7.082;2022-11-25T18:38:12;10.80;3.00
48328;DHT22;34136;51.022;7.082;2022-11-25T18:41:00;10.80;3.50
48328;DHT22;34136;51.022;7.082;2022-11-25T18:43:46;10.70;3.70
48328;DHT22;34136;51.022;7.082;2022-11-25T18:46:35;10.80;3.70
48328;DHT22;34136;51.022;7.082;2022-11-25T18:49:22;10.80;3.90
48328;DHT22;34136;51.022;7.082;2022-11-25T18:52:08;10.80;3.80
48328;DHT22;34136;51.022;7.082;2022-11-25T18:55:01;10.70;4.10
48328;DHT22;34136;51.022;7.082;2022-11-25T18:58:21;10.70;4.20
48328;DHT22;34136;51.022;7.082;2022-11-25T19:01:12;10.70;4.90
48328;DHT22;34136;51.022;7.082;2022-11-25T19:03:58;10.70;5.30
48328;DHT22;34136;51.022;7.082;2022-11-25T19:06:47;10.70;5.30
48328;DHT22;34136;51.022;7.082;2022-11-25T19:09:33;10.70;5.00
48328;DHT22;34136;51.022;7.082;2022-11-25T19:12:20;10.70;5.10
48328;DHT22;34136;51.022;7.082;2022-11-25T19:15:08;10.70;5.20
48328;DHT22;34136;51.022;7.082;2022-11-25T19:18:00;10.70;5.50
48328;DHT22;34136;51.022;7.082;2022-11-25T19:20:47;10.80;5.30
48328;DHT22;34136;51.022;7.082;2022-11-25T19:23:34;10.70;5.10
48328;DHT22;34136;51.022;7.082;2022-11-25T19:26:27;10.70;5.50
48328;DHT22;34136;51.022;7.082;2022-11-25T19:29:19;10.70;5.60
48328;DHT22;34136;51.022;7.082;2022-11-25T19:32:25;10.80;5.60
48328;DHT22;34136;51.022;7.082;2022-11-25T19:35:26;10.70;5.70
48328;DHT22;34136;51.022;7.082;2022-11-25T19:38:20;10.80;5.70
48328;DHT22;34136;51.022;7.082;2022-11-25T19:41:07;10.60;5.90
48328;DHT22;34136;51.022;7.082;2022-11-25T19:43:53;10.60;6.10
48328;DHT22;34136;51.022;7.082;2022-11-25T19:46:43;10.50;6.40
48328;DHT22;34136;51.022;7.082;2022-11-25T19:49:31;10.60;6.80
48328;DHT22;34136;51.022;7.082;2022-11-25T21:54:37;9.90;11.30
48328;DHT22;34136;51.022;7.082;2022-11-25T21:57:26;9.90;11.50
48328;DHT22;34136;51.022;7.082;2022-11-25T22:00:23;9.90;11.30
48328;DHT22;34136;51.022;7.082;2022-11-25T22:03:17;9.90;11.50
48328;DHT22;34136;51.022;7.082;2022-11-25T22:09:11;9.90;11.50
48328;DHT22;34136;51.022;7.082;2022-11-25T22:11:57;9.90;11.40
48328;DHT22;34136;51.022;7.082;2022-11-25T22:14:44;9.80;11.60
48328;DHT22;34136;51.022;7.082;2022-11-25T22:17:30;9.90;11.70
48328;DHT22;34136;51.022;7.082;2022-11-25T22:20:35;9.90;11.80
48328;DHT22;34136;51.022;7.082;2022-11-25T22:23:22;9.80;11.90
48328;DHT22;34136;51.022;7.082;2022-11-25T22:26:18;9.80;11.70
48328;DHT22;34136;51.022;7.082;2022-11-25T22:29:16;9.80;11.60
48328;DHT22;34136;51.022;7.082;2022-11-25T22:32:03;9.80;11.50
48328;DHT22;34136;51.022;7.082;2022-11-25T22:34:49;9.80;11.90
48328;DHT22;34136;51.022;7.082;2022-11-25T22:37:35;9.70;11.50
48328;DHT22;34136;51.022;7.082;2022-11-25T22:40:46;9.70;11.70
48328;DHT22;34136;51.022;7.082;2022-11-25T22:43:36;9.70;11.40
48328;DHT22;34136;51.022;7.082;2022-11-25T22:46:25;9.60;11.10
48328;DHT22;34136;51.022;7.082;2022-11-25T22:49:28;9.50;10.80
48328;DHT22;34136;51.022;7.082;2022-11-25T22:52:34;9.50;11.20
48328;DHT22;34136;51.022;7.082;2022-11-25T22:55:27;9.40;11.20
48328;DHT22;34136;51.022;7.082;2022-11-25T22:58:13;9.40;10.50
48328;DHT22;34136;51.022;7.082;2022-11-25T23:01:00;9.30;10.50
48328;DHT22;34136;51.022;7.082;2022-11-25T23:03:46;9.30;10.40
48328;DHT22;34136;51.022;7.082;2022-11-25T23:06:33;9.20;10.40
48328;DHT22;34136;51.022;7.082;2022-11-25T23:09:19;9.20;10.40
48328;DHT22;34136;51.022;7.082;2022-11-25T23:12:23;9.20;9.80
48328;DHT22;34136;51.022;7.082;2022-11-25T23:15:17;9.10;9.20
48328;DHT22;34136;51.022;7.082;2022-11-25T23:18:10;9.00;9.50
48328;DHT22;34136;51.022;7.082;2022-11-25T23:20:58;9.00;9.70
48328;DHT22;34136;51.022;7.082;2022-11-25T23:23:44;8.80;9.90
48328;DHT22;34136;51.022;7.082;2022-11-25T23:26:49;8.70;9.80
48328;DHT22;34136;51.022;7.082;2022-11-25T23:29:53;8.70;9.40
48328;DHT22;34136;51.022;7.082;2022-11-25T23:32:58;8.70;9.20
48328;DHT22;34136;51.022;7.082;2022-11-25T23:35:44;8.60;8.70
48328;DHT22;34136;51.022;7.082;2022-11-25T23:38:31;8.50;9.20